Time;durP1;ratioP1;P1;durP2;ratioP2;P2;SDS_P1;SDS_P2;PMS_P1;PMS_P2;Temp;Humidity;BMP_temperature;BMP_pressure;BME280_temperature;BME280_humidity;BME280_pressure;Samples;Min_cycle;Max_cycle;Signal;HPM_P1;HPM_P2
2024/02/17 00:00:15;;;;;;;8.35;5.13;;;;;;;11.06;100.00;99093.41;15294974;19;20018;-56
2024/02/17 00:05:41;;;;;;;8.35;5.57;;;;;;;11.04;100.00;99095.38;15305035;19;20026;-53
2024/02/17 00:11:09;;;;;;;6.35;5.47;;;;;;;11.03;100.00;99093.69;15292452;19;20037;-55
2024/02/17 00:16:34;;;;;;;7.60;5.18;;;;;;;11.01;100.00;99113.72;15302111;19;20033;-56
2024/02/17 00:21:58;;;;;;;6.72;5.55;;;;;;;10.99;100.00;99121.97;15287934;19;20019;-55
2024/02/17 00:27:27;;;;;;;7.68;6.32;;;;;;;10.99;100.00;99127.34;15302665;19;20014;-55
2024/02/17 00:32:59;;;;;;;7.00;6.30;;;;;;;10.98;100.00;99135.56;15287112;19;20467;-56
2024/02/17 00:38:24;;;;;;;8.40;6.80;;;;;;;10.95;100.00;99142.94;15302754;19;20094;-53
2024/02/17 00:43:51;;;;;;;8.02;6.95;;;;;;;10.91;100.00;99151.47;15293855;19;20936;-54
2024/02/17 00:49:16;;;;;;;9.10;7.30;;;;;;;10.87;100.00;99159.00;15297765;19;20024;-53
2024/02/17 00:54:41;;;;;;;8.00;7.03;;;;;;;10.81;100.00;99177.59;15297312;19;20360;-53
2024/02/17 01:00:10;;;;;;;9.30;7.63;;;;;;;10.74;100.00;99180.88;15301263;19;20022;-53
2024/02/17 01:05:36;;;;;;;8.98;8.05;;;;;;;10.73;100.00;99203.44;15296583;19;20036;-57
2024/02/17 01:11:02;;;;;;;10.63;7.70;;;;;;;10.70;100.00;99211.81;15297445;19;20377;-55
2024/02/17 01:16:29;;;;;;;10.35;8.55;;;;;;;10.67;100.00;99225.56;15291941;19;20036;-56
2024/02/17 01:21:54;;;;;;;10.57;8.57;;;;;;;10.63;100.00;99234.94;15286871;19;20015;-56
2024/02/17 01:27:18;;;;;;;10.80;8.90;;;;;;;10.60;100.00;99236.03;15291100;19;20018;-56
2024/02/17 01:32:52;;;;;;;9.77;8.70;;;;;;;10.55;100.00;99248.25;15287399;19;20534;-56
2024/02/17 01:38:17;;;;;;;9.25;7.90;;;;;;;10.47;100.00;99252.50;15284432;19;20021;-57
2024/02/17 01:43:41;;;;;;;8.52;6.65;;;;;;;10.40;100.00;99261.28;15289099;19;20014;-53
2024/02/17 01:49:08;;;;;;;6.75;6.13;;;;;;;10.32;100.00;99275.41;15286370;19;20010;-52
2024/02/17 01:54:34;;;;;;;6.35;5.75;;;;;;;10.25;100.00;99271.56;15295297;19;20018;-56
2024/02/17 02:00:00;;;;;;;5.35;4.45;;;;;;;10.12;100.00;99264.59;15287479;19;20018;-53
2024/02/17 02:05:29;;;;;;;4.90;4.40;;;;;;;10.04;100.00;99272.50;15290838;19;20486;-53
2024/02/17 02:10:54;;;;;;;4.70;4.30;;;;;;;9.97;100.00;99271.34;15287675;19;20360;-56
2024/02/17 02:16:19;;;;;;;4.85;4.35;;;;;;;9.91;100.00;99283.50;15289539;19;20086;-54
2024/02/17 02:21:46;;;;;;;4.35;3.95;;;;;;;9.86;100.00;99275.84;15281083;19;20018;-56
2024/02/17 02:27:14;;;;;;;4.72;3.85;;;;;;;9.83;100.00;99276.09;15289681;19;20029;-56
2024/02/17 02:32:47;;;;;;;4.47;4.07;;;;;;;9.78;100.00;99281.06;15283667;19;20018;-52
2024/02/17 02:38:13;;;;;;;4.43;3.92;;;;;;;9.72;100.00;99284.25;15290595;19;20073;-56
2024/02/17 02:43:40;;;;;;;4.38;3.97;;;;;;;9.71;100.00;99293.31;15285719;19;20018;-52
2024/02/17 02:49:05;;;;;;;4.75;3.90;;;;;;;9.68;100.00;99301.69;15291416;19;20024;-56
2024/02/17 02:54:29;;;;;;;4.30;3.90;;;;;;;9.63;100.00;99288.63;15293234;19;20031;-55
2024/02/17 02:59:57;;;;;;;6.13;4.40;;;;;;;9.54;100.00;99287.59;15290968;19;20018;-52
2024/02/17 03:05:22;;;;;;;5.25;3.75;;;;;;;9.47;100.00;99281.03;15293146;19;20090;-53
2024/02/17 03:10:47;;;;;;;4.40;3.70;;;;;;;9.37;100.00;99282.81;15291067;19;20053;-54
2024/02/17 03:16:15;;;;;;;4.07;3.70;;;;;;;9.25;100.00;99282.88;15286579;19;20534;-54
2024/02/17 03:21:42;;;;;;;3.95;3.60;;;;;;;9.17;100.00;99306.06;15278967;19;20014;-54
2024/02/17 03:27:07;;;;;;;4.28;3.80;;;;;;;9.05;100.00;99292.66;15284997;19;20767;-53
2024/02/17 03:32:35;;;;;;;4.03;3.65;;;;;;;9.05;100.00;99307.94;15278272;19;20032;-53
2024/02/17 03:38:00;;;;;;;4.45;4.05;;;;;;;9.06;100.00;99315.84;15301233;19;20368;-54
2024/02/17 03:43:26;;;;;;;4.20;3.80;;;;;;;9.03;100.00;99320.66;15304734;19;20034;-52
2024/02/17 03:48:53;;;;;;;5.50;3.60;;;;;;;9.05;100.00;99332.13;15301860;19;20090;-52
2024/02/17 03:54:18;;;;;;;4.03;3.60;;;;;;;9.01;100.00;99327.97;15302021;19;20017;-53
2024/02/17 03:59:43;;;;;;;5.38;4.25;;;;;;;8.92;100.00;99322.41;15302128;19;20021;-55
2024/02/17 04:05:11;;;;;;;4.88;4.47;;;;;;;8.91;100.00;99319.84;15302956;19;20036;-56
2024/02/17 04:10:35;;;;;;;4.75;4.30;;;;;;;8.85;100.00;99331.97;15299773;19;20078;-54
2024/02/17 04:16:00;;;;;;;5.05;4.20;;;;;;;8.82;100.00;99342.97;15302493;19;20014;-56
2024/02/17 04:21:27;;;;;;;4.60;4.18;;;;;;;8.70;100.00;99347.50;15297584;19;20025;-54
2024/02/17 04:26:52;;;;;;;4.50;4.10;;;;;;;8.60;100.00;99357.31;15298908;19;20098;-56
2024/02/17 04:32:17;;;;;;;5.53;4.72;;;;;;;8.55;100.00;99371.09;15299181;19;20459;-56
2024/02/17 04:37:45;;;;;;;5.85;4.65;;;;;;;8.49;100.00;99371.63;15297549;19;20031;-56
2024/02/17 04:43:09;;;;;;;7.22;4.47;;;;;;;8.39;100.00;99382.22;15295870;19;20039;-53
2024/02/17 04:48:34;;;;;;;4.35;3.97;;;;;;;8.30;100.00;99391.00;15297102;19;20015;-53
2024/02/17 04:54:01;;;;;;;5.18;4.20;;;;;;;8.23;100.00;99387.97;15289868;19;20091;-56
2024/02/17 04:59:26;;;;;;;4.28;3.88;;;;;;;8.15;100.00;99395.78;15291370;19;20019;-56
2024/02/17 05:04:50;;;;;;;4.65;4.25;;;;;;;8.11;100.00;99399.69;15293969;19;20023;-54
2024/02/17 05:10:17;;;;;;;4.70;4.20;;;;;;;8.06;100.00;99417.97;15294503;19;20022;-53
2024/02/17 05:15:43;;;;;;;5.75;4.60;;;;;;;8.02;100.00;99425.41;15290912;19;20029;-55
2024/02/17 05:21:10;;;;;;;6.18;4.80;;;;;;;7.96;100.00;99428.56;15296166;19;20014;-53
2024/02/17 05:26:45;;;;;;;6.60;5.20;;;;;;;7.93;100.00;99437.72;15292852;19;20041;-55
2024/02/17 05:32:17;;;;;;;7.15;5.70;;;;;;;7.99;100.00;99455.19;15283290;19;20026;-51
2024/02/17 05:37:42;;;;;;;6.75;6.00;;;;;;;8.07;100.00;99459.94;15292185;19;20014;-52
2024/02/17 05:43:09;;;;;;;7.55;6.32;;;;;;;8.09;100.00;99460.66;15298055;19;20373;-52
2024/02/17 05:48:34;;;;;;;7.10;6.40;;;;;;;8.13;100.00;99478.25;15294134;19;20474;-55
2024/02/17 05:53:58;;;;;;;9.07;7.28;;;;;;;8.17;100.00;99480.56;15283427;19;20021;-52
2024/02/17 05:59:26;;;;;;;8.38;7.07;;;;;;;8.22;100.00;99492.81;15290480;19;20024;-53
2024/02/17 06:04:51;;;;;;;8.50;7.10;;;;;;;8.29;100.00;99500.22;15288956;19;20014;-55
2024/02/17 06:10:16;;;;;;;7.80;6.85;;;;;;;8.38;100.00;99503.19;15292458;19;20353;-56
2024/02/17 06:15:43;;;;;;;8.18;7.07;;;;;;;8.38;100.00;99509.41;15293346;19;20413;-53
2024/02/17 06:21:19;;;;;;;7.70;6.90;;;;;;;8.32;100.00;99508.06;15291893;19;20477;-52
2024/02/17 06:26:45;;;;;;;7.10;6.40;;;;;;;8.41;100.00;99519.06;15284925;19;20025;-54
2024/02/17 06:32:19;;;;;;;8.23;6.90;;;;;;;8.45;100.00;99542.00;15283898;19;20348;-56
2024/02/17 06:37:44;;;;;;;6.97;6.10;;;;;;;8.43;100.00;99552.88;15284470;19;20485;-57
2024/02/17 06:43:08;;;;;;;7.57;6.35;;;;;;;8.44;100.00;99556.41;15276015;19;20018;-54
2024/02/17 06:48:36;;;;;;;6.80;5.97;;;;;;;8.42;100.00;99561.91;15263502;19;20498;-56
2024/02/17 06:54:00;;;;;;;7.20;6.50;;;;;;;8.33;100.00;99568.84;15282605;19;20042;-57
2024/02/17 06:59:25;;;;;;;6.95;6.25;;;;;;;8.30;100.00;99581.66;15283845;19;20390;-55
2024/02/17 07:04:52;;;;;;;9.27;7.00;;;;;;;8.30;100.00;99601.28;15289719;19;20025;-53
2024/02/17 07:10:17;;;;;;;7.78;6.90;;;;;;;8.16;100.00;99610.41;15281398;19;20018;-52
2024/02/17 07:15:45;;;;;;;8.88;7.70;;;;;;;8.10;100.00;99618.06;15286073;19;20086;-53
2024/02/17 07:21:13;;;;;;;8.93;7.35;;;;;;;8.05;100.00;99623.78;15291354;19;20379;-51
2024/02/17 07:26:38;;;;;;;9.13;7.20;;;;;;;8.03;100.00;99633.78;15283014;19;20351;-52
2024/02/17 07:32:09;;;;;;;9.00;8.10;;;;;;;8.06;100.00;99640.72;15278611;19;20025;-52
2024/02/17 07:37:36;;;;;;;9.33;7.77;;;;;;;8.09;100.00;99653.94;15283753;19;20017;-52
2024/02/17 07:43:01;;;;;;;9.73;8.73;;;;;;;8.15;100.00;99672.28;15275763;19;20775;-53
2024/02/17 07:48:26;;;;;;;9.40;7.80;;;;;;;8.27;100.00;99682.09;15288669;19;20439;-51
2024/02/17 07:53:56;;;;;;;7.88;7.07;;;;;;;8.43;100.00;99697.03;15286242;19;20018;-52
2024/02/17 07:59:21;;;;;;;7.93;6.80;;;;;;;8.51;100.00;99702.72;15284884;19;20073;-52
2024/02/17 08:04:45;;;;;;;7.93;6.75;;;;;;;8.53;100.00;99699.91;15284514;19;20018;-51
2024/02/17 08:10:14;;;;;;;8.77;7.20;;;;;;;8.65;100.00;99704.34;15288464;19;20077;-53
2024/02/17 08:15:38;;;;;;;7.68;6.55;;;;;;;8.78;100.00;99707.81;15283700;19;20042;-55
2024/02/17 08:21:03;;;;;;;8.57;6.25;;;;;;;8.89;100.00;99722.25;15291951;19;20029;-52
2024/02/17 08:26:31;;;;;;;6.88;6.20;;;;;;;8.97;100.00;99735.94;15294813;19;20036;-52
2024/02/17 08:31:56;;;;;;;7.03;6.22;;;;;;;9.05;100.00;99735.34;15296463;19;20026;-52
2024/02/17 08:37:20;;;;;;;7.32;6.60;;;;;;;9.08;100.00;99737.81;15293976;19;20085;-50
2024/02/17 08:42:47;;;;;;;6.95;6.25;;;;;;;9.11;100.00;99745.66;15295157;19;20022;-52
2024/02/17 08:48:14;;;;;;;8.07;6.07;;;;;;;9.13;100.00;99751.75;15293731;19;20017;-51
2024/02/17 08:53:40;;;;;;;7.05;6.30;;;;;;;9.18;100.00;99760.31;15289559;19;20412;-51
2024/02/17 08:59:07;;;;;;;7.32;6.40;;;;;;;9.24;100.00;99770.59;15297001;19;20479;-52
2024/02/17 09:04:32;;;;;;;7.30;6.03;;;;;;;9.31;100.00;99775.50;15297025;19;20490;-51
2024/02/17 09:09:59;;;;;;;7.20;6.50;;;;;;;9.41;100.00;99782.72;15295664;19;20015;-51
2024/02/17 09:15:26;;;;;;;8.02;5.88;;;;;;;9.50;100.00;99791.91;15290098;19;20021;-55
2024/02/17 09:20:51;;;;;;;8.23;6.45;;;;;;;9.63;100.00;99793.63;15297061;19;20029;-53
2024/02/17 09:26:22;;;;;;;7.35;6.65;;;;;;;9.74;100.00;99804.41;15299164;19;20353;-50
2024/02/17 09:31:50;;;;;;;7.57;5.63;;;;;;;9.78;100.00;99808.56;15291131;19;20029;-51
2024/02/17 09:37:23;;;;;;;6.53;5.55;;;;;;;9.75;100.00;99789.97;15290405;19;20365;-52
2024/02/17 09:42:50;;;;;;;6.05;5.45;;;;;;;9.70;100.00;99794.88;15295260;19;20014;-51
2024/02/17 09:48:20;;;;;;;5.97;5.30;;;;;;;9.65;100.00;99783.59;15284116;19;20021;-51
2024/02/17 09:53:45;;;;;;;7.03;5.90;;;;;;;9.65;100.00;99786.28;15294786;19;20022;-55
2024/02/17 09:59:10;;;;;;;6.55;5.35;;;;;;;9.66;100.00;99790.69;15287181;19;20352;-52
2024/02/17 10:04:37;;;;;;;7.32;5.30;;;;;;;9.67;100.00;99798.63;15296175;19;20622;-51
2024/02/17 10:10:04;;;;;;;9.35;5.93;;;;;;;9.66;100.00;99807.69;15285870;19;20760;-50
2024/02/17 10:15:31;;;;;;;6.43;5.57;;;;;;;9.67;100.00;99819.31;15286165;19;20025;-51
2024/02/17 10:21:02;;;;;;;6.07;5.47;;;;;;;9.66;100.00;99809.53;15283629;19;20042;-52
2024/02/17 10:26:28;;;;;;;6.33;5.57;;;;;;;9.68;100.00;99827.28;15285711;19;20020;-51
2024/02/17 10:31:55;;;;;;;5.97;5.25;;;;;;;9.70;100.00;99819.94;15291773;19;20032;-51
2024/02/17 10:37:23;;;;;;;6.85;5.32;;;;;;;9.81;100.00;99827.19;15286485;19;20086;-51
2024/02/17 10:42:49;;;;;;;6.78;5.13;;;;;;;9.94;100.00;99828.84;15290495;19;20014;-53
2024/02/17 10:48:15;;;;;;;5.18;4.68;;;;;;;10.09;100.00;99816.88;15283876;19;20036;-53
2024/02/17 10:53:50;;;;;;;5.45;4.72;;;;;;;10.21;100.00;99822.25;15285645;19;20014;-51
2024/02/17 10:59:18;;;;;;;7.20;5.10;;;;;;;10.21;100.00;99811.47;15276904;19;20041;-54
2024/02/17 11:04:43;;;;;;;6.47;5.10;;;;;;;10.22;100.00;99818.56;15286071;19;20022;-54
2024/02/17 11:10:13;;;;;;;5.80;4.93;;;;;;;10.26;100.00;99803.88;15275366;19;20023;-51
2024/02/17 11:15:38;;;;;;;5.60;4.40;;;;;;;10.28;100.00;99813.53;15280800;19;20078;-54
2024/02/17 11:21:03;;;;;;;5.88;5.15;;;;;;;10.25;100.00;99807.56;15275816;19;20023;-53
2024/02/17 11:26:31;;;;;;;5.60;4.93;;;;;;;10.25;100.00;99794.09;15287108;19;20013;-52
2024/02/17 11:32:13;;;;;;;7.60;5.00;;;;;;;10.27;100.00;99805.59;15296200;19;20021;-55
2024/02/17 11:37:40;;;;;;;6.38;4.80;;;;;;;10.25;100.00;99812.94;15301967;19;20022;-55
2024/02/17 11:43:07;;;;;;;5.60;4.38;;;;;;;10.23;100.00;99809.50;15296205;19;20427;-55
2024/02/17 11:48:33;;;;;;;7.13;4.47;;;;;;;10.21;100.00;99815.03;15289069;19;20092;-54
2024/02/17 11:53:59;;;;;;;5.45;4.25;;;;;;;10.21;100.00;99817.72;15291086;19;20029;-55
2024/02/17 11:59:30;;;;;;;4.97;4.03;;;;;;;10.22;100.00;99815.88;15307610;19;20018;-55
2024/02/17 12:04:54;;;;;;;4.03;3.63;;;;;;;10.31;100.00;99828.59;15314086;19;20015;-55
2024/02/17 12:10:21;;;;;;;3.80;3.20;;;;;;;10.43;100.00;99832.16;15306808;19;20021;-55
2024/02/17 12:15:48;;;;;;;3.70;3.17;;;;;;;10.54;100.00;99824.06;15309886;19;20014;-52
2024/02/17 12:21:14;;;;;;;3.92;3.30;;;;;;;10.62;100.00;99816.19;15277372;19;20025;-62
2024/02/17 12:26:41;;;;;;;4.13;3.55;;;;;;;10.64;100.00;99805.28;15290769;19;20042;-62
2024/02/17 12:32:21;;;;;;;4.85;3.30;;;;;;;10.68;100.00;99809.44;15292756;19;20018;-62
2024/02/17 12:37:50;;;;;;;4.93;3.97;;;;;;;10.65;100.00;99798.88;15298586;19;20016;-61
2024/02/17 12:43:20;;;;;;;5.75;4.78;;;;;;;10.74;100.00;99790.06;15297023;19;20014;-61
2024/02/17 12:48:58;;;;;;;6.47;3.92;;;;;;;10.83;100.00;99795.66;15296465;19;20025;-60
2024/02/17 12:54:23;;;;;;;5.10;3.40;;;;;;;10.88;100.00;99794.28;15293991;19;20010;-60
2024/02/17 12:59:48;;;;;;;4.75;3.60;;;;;;;10.88;100.00;99798.81;15292654;19;20383;-61
2024/02/17 13:05:18;;;;;;;4.30;3.63;;;;;;;10.89;100.00;99790.59;15288987;19;20459;-61
2024/02/17 13:10:43;;;;;;;4.30;3.30;;;;;;;10.96;100.00;99807.13;15293922;19;20015;-62
2024/02/17 13:16:08;;;;;;;4.28;3.45;;;;;;;10.97;100.00;99798.06;15289884;19;20064;-59
2024/02/17 13:21:42;;;;;;;4.10;3.42;;;;;;;10.89;100.00;99798.69;15286231;19;20038;-62
2024/02/17 13:27:07;;;;;;;3.97;3.30;;;;;;;10.79;100.00;99795.91;15298144;19;20967;-59
2024/02/17 13:32:31;;;;;;;3.63;3.33;;;;;;;10.68;100.00;99793.25;15286083;19;20014;-61
2024/02/17 13:37:52;;;;;;;6.47;3.50;;;;;;;10.64;100.00;99791.81;15287632;19;20027;-60
2024/02/17 13:43:35;;;;;;;4.90;3.40;;;;;;;10.64;100.00;99800.75;15289494;19;20006;-60
2024/02/17 13:49:09;;;;;;;3.50;3.20;;;;;;;10.71;100.00;99802.91;15293435;19;20118;-60
2024/02/17 13:54:38;;;;;;;5.13;3.30;;;;;;;10.77;100.00;99800.56;15286222;19;20483;-61
2024/02/17 14:00:05;;;;;;;4.07;3.10;;;;;;;10.85;100.00;99820.66;15288150;19;20074;-61
2024/02/17 14:05:30;;;;;;;5.53;3.10;;;;;;;10.82;100.00;99819.06;15295394;19;20014;-60
2024/02/17 14:10:57;;;;;;;3.55;3.00;;;;;;;10.73;100.00;99818.00;15286693;19;20014;-61
2024/02/17 14:16:22;;;;;;;4.75;3.00;;;;;;;10.67;100.00;99812.25;15283527;19;20015;-61
2024/02/17 14:21:53;;;;;;;5.10;3.45;;;;;;;10.61;100.00;99819.84;15285764;19;20019;-60
2024/02/17 14:27:21;;;;;;;4.10;3.37;;;;;;;10.59;100.00;99819.13;15286775;19;20530;-61
2024/02/17 14:32:45;;;;;;;5.38;3.22;;;;;;;10.60;100.00;99830.78;15285258;19;20293;-60
2024/02/17 14:38:11;;;;;;;4.47;3.10;;;;;;;10.57;100.00;99821.13;15282583;19;20014;-60
2024/02/17 14:43:38;;;;;;;3.88;3.15;;;;;;;10.57;100.00;99836.41;15290099;19;20463;-61
2024/02/17 14:49:03;;;;;;;4.55;3.00;;;;;;;10.56;100.00;99837.41;15293405;19;20386;-61
2024/02/17 14:54:28;;;;;;;3.95;3.10;;;;;;;10.59;100.00;99848.78;15290705;19;20390;-61
2024/02/17 14:59:57;;;;;;;3.42;2.88;;;;;;;10.65;100.00;99833.94;15282607;19;20041;-59
2024/02/17 15:05:24;;;;;;;3.63;2.92;;;;;;;10.71;100.00;99838.84;15265628;19;20029;-60
2024/02/17 15:10:49;;;;;;;4.50;2.83;;;;;;;10.89;100.00;99822.09;15277514;19;20032;-62
2024/02/17 15:16:16;;;;;;;5.93;2.65;;;;;;;11.31;100.00;99815.88;15251362;19;20086;-61
2024/02/17 15:21:47;;;;;;;4.85;2.75;;;;;;;11.59;100.00;99824.31;15281030;19;20027;-60
2024/02/17 15:27:12;;;;;;;3.17;2.88;;;;;;;11.49;100.00;99830.50;15287028;19;20430;-61
2024/02/17 15:32:39;;;;;;;3.95;2.70;;;;;;;11.17;100.00;99846.75;15296961;19;20022;-58
2024/02/17 15:38:04;;;;;;;4.03;3.00;;;;;;;10.85;100.00;99845.75;15304596;19;20016;-61
2024/02/17 15:43:31;;;;;;;5.30;2.80;;;;;;;10.62;100.00;99847.69;15299456;19;20018;-59
2024/02/17 15:48:59;;;;;;;3.45;2.58;;;;;;;10.55;100.00;99858.13;15300608;19;20090;-60
2024/02/17 15:54:24;;;;;;;3.50;2.58;;;;;;;10.46;100.00;99865.09;15303241;19;20058;-60
2024/02/17 15:59:49;;;;;;;3.65;2.70;;;;;;;10.40;100.00;99875.53;15301586;19;20015;-60
2024/02/17 16:05:18;;;;;;;3.00;2.30;;;;;;;10.36;100.00;99887.47;15304621;19;20006;-59
2024/02/17 16:10:45;;;;;;;2.53;2.33;;;;;;;10.31;100.00;99894.13;15299726;19;20480;-57
2024/02/17 16:16:09;;;;;;;3.63;2.60;;;;;;;10.25;100.00;99901.84;15294246;19;20025;-58
2024/02/17 16:21:44;;;;;;;3.40;2.75;;;;;;;10.12;100.00;99910.88;15298248;19;20026;-60
2024/02/17 16:27:09;;;;;;;5.47;2.60;;;;;;;10.06;100.00;99922.13;15304396;19;20014;-60
2024/02/17 16:32:34;;;;;;;2.40;2.20;;;;;;;9.99;100.00;99920.91;15296492;19;20016;-59
2024/02/17 16:38:02;;;;;;;2.90;2.50;;;;;;;9.95;100.00;99925.69;15303937;19;20021;-60
2024/02/17 16:43:26;;;;;;;3.17;2.38;;;;;;;9.93;100.00;99937.56;15299901;19;20757;-59
2024/02/17 16:48:51;;;;;;;5.75;2.47;;;;;;;9.93;100.00;99940.25;15297383;19;20089;-59
2024/02/17 16:54:18;;;;;;;4.20;2.55;;;;;;;9.90;100.00;99943.19;15299702;19;20006;-60
2024/02/17 16:59:43;;;;;;;3.97;2.80;;;;;;;9.84;100.00;99941.81;15298041;19;20452;-60
2024/02/17 17:05:07;;;;;;;5.05;3.00;;;;;;;9.79;100.00;99957.44;15300421;19;20032;-60
2024/02/17 17:10:35;;;;;;;10.40;7.55;;;;;;;9.76;100.00;99963.94;15296305;19;20032;-61
2024/02/17 17:16:00;;;;;;;6.60;4.32;;;;;;;9.74;100.00;99965.88;15297289;19;20463;-61
2024/02/17 17:21:26;;;;;;;5.97;2.80;;;;;;;9.71;100.00;99977.75;15293016;19;20014;-59
2024/02/17 17:26:54;;;;;;;3.55;2.22;;;;;;;9.64;100.00;99981.03;15299784;19;20497;-59
2024/02/17 17:32:19;;;;;;;4.25;2.30;;;;;;;9.62;100.00;99991.03;15288984;19;20416;-60
2024/02/17 17:37:43;;;;;;;3.45;2.40;;;;;;;9.59;100.00;99999.34;15293173;19;20347;-58
2024/02/17 17:43:11;;;;;;;3.50;2.70;;;;;;;9.57;100.00;100007.53;15297043;19;20019;-60
2024/02/17 17:48:35;;;;;;;2.45;2.10;;;;;;;9.58;100.00;100011.09;15297130;19;20098;-56
2024/02/17 17:54:00;;;;;;;3.03;2.08;;;;;;;9.58;100.00;100014.63;15285296;19;20086;-60
2024/02/17 17:59:27;;;;;;;2.80;2.20;;;;;;;9.58;100.00;100016.50;15290192;19;20019;-61
2024/02/17 18:04:53;;;;;;;3.35;2.05;;;;;;;9.59;100.00;100020.88;15296759;19;20026;-62
2024/02/17 18:10:20;;;;;;;3.20;2.17;;;;;;;9.58;100.00;100019.19;15291435;19;20014;-61
2024/02/17 18:15:50;;;;;;;2.72;1.90;;;;;;;9.54;100.00;100018.53;15292110;19;20016;-61
2024/02/17 18:21:22;;;;;;;2.20;2.00;;;;;;;9.50;100.00;100023.28;15287968;19;20987;-60
2024/02/17 18:26:48;;;;;;;2.60;1.80;;;;;;;9.55;100.00;100028.31;15289575;19;20015;-61
2024/02/17 18:32:15;;;;;;;2.53;2.17;;;;;;;9.51;100.00;100034.91;15290685;19;20415;-61
2024/02/17 18:37:40;;;;;;;2.88;2.20;;;;;;;9.44;100.00;100041.72;15290918;19;20483;-61
2024/02/17 18:43:04;;;;;;;4.82;2.10;;;;;;;9.41;100.00;100057.09;15293867;19;20023;-60
2024/02/17 18:48:32;;;;;;;4.28;2.40;;;;;;;9.36;100.00;100058.41;15293552;19;20090;-59
2024/02/17 18:53:57;;;;;;;4.25;2.50;;;;;;;9.34;100.00;100066.59;15294066;19;20085;-59
2024/02/17 18:59:22;;;;;;;5.50;2.55;;;;;;;9.33;100.00;100058.66;15289322;19;20070;-61
2024/02/17 19:04:50;;;;;;;3.20;2.30;;;;;;;9.31;100.00;100061.44;15293221;19;20356;-60
2024/02/17 19:10:20;;;;;;;2.80;2.20;;;;;;;9.28;100.00;100067.06;15292291;19;20022;-60
2024/02/17 19:15:44;;;;;;;2.40;2.20;;;;;;;9.25;100.00;100070.81;15284333;19;20014;-59
2024/02/17 19:21:13;;;;;;;2.67;2.20;;;;;;;9.23;100.00;100066.53;15286059;19;20414;-58
2024/02/17 19:26:37;;;;;;;4.00;2.72;;;;;;;9.19;100.00;100084.72;15285483;19;20024;-57
2024/02/17 19:32:03;;;;;;;3.50;2.70;;;;;;;9.11;100.00;100087.13;15284122;19;20351;-58
2024/02/17 19:37:31;;;;;;;3.35;2.60;;;;;;;9.07;100.00;100093.69;15292349;19;20017;-61
2024/02/17 19:42:56;;;;;;;2.80;2.50;;;;;;;9.00;100.00;100097.75;15294337;19;20023;-59
2024/02/17 19:48:20;;;;;;;4.20;2.75;;;;;;;8.96;100.00;100093.59;15285634;19;20020;-60
2024/02/17 19:53:51;;;;;;;3.88;2.70;;;;;;;8.92;100.00;100096.50;15289076;19;20018;-59
2024/02/17 19:59:15;;;;;;;4.07;2.60;;;;;;;8.93;100.00;100100.91;15287831;19;20090;-58
2024/02/17 20:04:41;;;;;;;5.07;2.80;;;;;;;8.91;100.00;100097.47;15284087;19;20255;-60
2024/02/17 20:10:09;;;;;;;2.92;2.55;;;;;;;8.89;100.00;100098.56;15280182;19;20777;-60
2024/02/17 20:15:34;;;;;;;3.83;2.40;;;;;;;8.89;100.00;100094.03;15288304;19;20367;-60
2024/02/17 20:21:00;;;;;;;2.70;2.25;;;;;;;8.85;100.00;100108.66;15295717;19;20014;-61
2024/02/17 20:26:28;;;;;;;3.28;2.28;;;;;;;8.86;100.00;100107.69;15298902;19;20024;-59
2024/02/17 20:31:53;;;;;;;4.20;2.40;;;;;;;8.87;100.00;100111.22;15295015;19;20083;-60
2024/02/17 20:37:18;;;;;;;4.07;2.38;;;;;;;8.84;100.00;100117.69;15301107;19;20021;-60
2024/02/17 20:42:45;;;;;;;3.80;2.28;;;;;;;8.78;100.00;100118.09;15299797;19;20022;-60
2024/02/17 20:48:10;;;;;;;3.65;2.67;;;;;;;8.77;100.00;100128.00;15304670;19;20029;-56
2024/02/17 20:53:35;;;;;;;3.63;2.17;;;;;;;8.70;100.00;100124.00;15302943;19;20015;-59
2024/02/17 20:59:03;;;;;;;4.50;2.53;;;;;;;8.61;100.00;100132.72;15295586;19;20095;-60
2024/02/17 21:04:37;;;;;;;3.78;2.20;;;;;;;8.51;100.00;100142.38;15300209;19;20018;-60
2024/02/17 21:10:03;;;;;;;3.47;2.28;;;;;;;8.45;100.00;100143.63;15352847;19;20018;-59
2024/02/17 21:15:30;;;;;;;2.22;2.00;;;;;;;8.39;100.00;100149.44;15291122;19;20424;-59
2024/02/17 21:20:55;;;;;;;5.03;2.20;;;;;;;8.36;100.00;100152.34;15293710;19;20011;-61
2024/02/17 21:26:19;;;;;;;2.22;1.90;;;;;;;8.33;100.00;100167.69;15298600;19;20540;-61
2024/02/17 21:31:47;;;;;;;3.55;2.10;;;;;;;8.29;100.00;100166.16;15294335;19;20041;-59
2024/02/17 21:37:12;;;;;;;2.95;2.38;;;;;;;8.28;100.00;100172.53;15290637;19;20024;-61
2024/02/17 21:42:37;;;;;;;4.68;2.20;;;;;;;8.26;100.00;100169.06;15288357;19;20033;-60
2024/02/17 21:48:04;;;;;;;3.17;2.20;;;;;;;8.21;100.00;100173.03;15290565;19;20869;-59
2024/02/17 21:53:29;;;;;;;2.70;2.50;;;;;;;8.16;100.00;100178.72;15293256;19;20658;-57
2024/02/17 21:58:53;;;;;;;3.53;2.60;;;;;;;8.10;100.00;100176.44;15291337;19;20029;-59
2024/02/17 22:04:21;;;;;;;4.45;3.17;;;;;;;8.04;100.00;100182.22;15294157;19;20085;-59
2024/02/17 22:09:46;;;;;;;4.22;3.17;;;;;;;7.97;100.00;100176.38;15288490;19;20025;-61
2024/02/17 22:15:12;;;;;;;5.28;3.50;;;;;;;7.90;100.00;100175.94;15293919;19;20023;-60
2024/02/17 22:20:39;;;;;;;5.30;3.78;;;;;;;7.80;100.00;100175.66;15280998;19;20727;-58
2024/02/17 22:26:04;;;;;;;3.83;3.50;;;;;;;7.71;100.00;100177.13;15289028;19;20028;-58
2024/02/17 22:31:35;;;;;;;4.95;3.65;;;;;;;7.65;100.00;100192.75;15290185;19;20018;-60
2024/02/17 22:37:03;;;;;;;4.50;3.73;;;;;;;7.62;100.00;100193.81;15286849;19;20017;-58
2024/02/17 22:42:28;;;;;;;4.90;3.83;;;;;;;7.60;100.00;100194.88;15284694;19;20021;-59
2024/02/17 22:47:52;;;;;;;5.10;4.20;;;;;;;7.58;100.00;100204.84;15291966;19;20021;-59
2024/02/17 22:53:20;;;;;;;5.85;3.58;;;;;;;7.59;100.00;100214.63;15292940;19;20081;-60
2024/02/17 22:58:44;;;;;;;5.40;4.13;;;;;;;7.58;100.00;100208.41;15283629;19;20024;-58
2024/02/17 23:04:08;;;;;;;5.63;4.40;;;;;;;7.56;100.00;100200.44;15291611;19;20077;-62
2024/02/17 23:09:36;;;;;;;5.10;4.30;;;;;;;7.56;100.00;100204.94;15282863;19;20596;-58
2024/02/17 23:15:02;;;;;;;4.45;4.00;;;;;;;7.57;100.00;100212.03;15286408;19;20036;-58
2024/02/17 23:20:27;;;;;;;4.72;3.95;;;;;;;7.59;100.00;100207.41;15282271;19;20029;-60
2024/02/17 23:25:55;;;;;;;5.20;4.35;;;;;;;7.59;100.00;100211.94;15290636;19;20082;-59
2024/02/17 23:31:19;;;;;;;4.57;4.00;;;;;;;7.54;100.00;100222.97;15282123;19;20073;-59
2024/02/17 23:36:44;;;;;;;5.45;4.60;;;;;;;7.48;100.00;100216.16;15289846;19;20025;-59
2024/02/17 23:42:11;;;;;;;5.05;4.32;;;;;;;7.47;100.00;100221.59;15285477;19;20019;-59
2024/02/17 23:47:36;;;;;;;6.05;4.43;;;;;;;7.46;100.00;100211.88;15282506;19;20014;-59
2024/02/17 23:53:00;;;;;;;6.75;4.40;;;;;;;7.41;100.00;100206.75;15298048;19;20020;-59
2024/02/17 23:58:28;;;;;;;5.32;4.32;;;;;;;7.43;100.00;100209.38;15296496;19;20455;-58
